createdAt,value
2017-12-13T00:00:04.825Z,3.13
2017-12-13T00:02:33.148Z,3.07
2017-12-13T00:05:01.504Z,3.03
2017-12-13T00:07:31.336Z,3.01
2017-12-13T00:09:59.704Z,3.08
2017-12-13T00:12:28.036Z,3.21
2017-12-13T00:14:56.392Z,3.39
2017-12-13T00:17:25.525Z,3.39
2017-12-13T00:19:53.888Z,3.40
2017-12-13T00:22:33.036Z,3.48
2017-12-13T00:25:02.504Z,3.52
2017-12-13T00:27:31.645Z,3.47
2017-12-13T00:29:59.968Z,3.33
2017-12-13T00:32:29.064Z,3.29
2017-12-13T00:34:57.828Z,3.29
2017-12-13T00:37:26.164Z,3.40
2017-12-13T00:39:54.540Z,3.45
2017-12-13T00:42:22.868Z,3.46
2017-12-13T00:44:51.636Z,3.49
2017-12-13T00:47:19.976Z,3.50
2017-12-13T00:49:48.711Z,3.49
2017-12-13T00:52:17.099Z,3.48
2017-12-13T00:54:45.496Z,3.57
2017-12-13T00:57:14.216Z,3.57
2017-12-13T00:59:42.584Z,3.50
2017-12-13T01:02:10.961Z,3.52
2017-12-13T01:04:40.457Z,3.55
2017-12-13T01:07:08.812Z,3.46
2017-12-13T01:09:37.162Z,3.39
2017-12-13T01:12:05.514Z,3.31
2017-12-13T01:14:33.980Z,3.30
2017-12-13T01:17:02.359Z,3.39
2017-12-13T01:19:30.700Z,3.34
2017-12-13T01:21:59.443Z,3.30
2017-12-13T01:24:27.812Z,3.26
2017-12-13T01:26:56.524Z,3.23
2017-12-13T01:29:24.880Z,3.04
2017-12-13T01:31:53.287Z,2.88
2017-12-13T01:34:21.628Z,2.90
2017-12-13T01:36:49.960Z,2.79
2017-12-13T01:39:18.324Z,2.57
2017-12-13T01:41:46.651Z,2.48
2017-12-13T01:44:15.008Z,2.39
2017-12-13T01:46:44.111Z,2.30
2017-12-13T01:49:12.463Z,2.18
2017-12-13T01:51:40.852Z,2.06
2017-12-13T01:54:09.572Z,2.03
2017-12-13T01:56:37.919Z,1.92
2017-12-13T01:59:06.672Z,1.89
2017-12-13T02:01:35.032Z,1.84
2017-12-13T02:04:04.520Z,1.83
2017-12-13T02:06:34.023Z,1.81
2017-12-13T02:09:02.391Z,1.81
2017-12-13T02:11:31.130Z,1.81
2017-12-13T02:13:59.479Z,1.70
2017-12-13T02:16:27.836Z,1.55
2017-12-13T02:18:56.551Z,1.47
2017-12-13T02:21:24.911Z,1.40
2017-12-13T02:23:53.344Z,1.39
2017-12-13T02:26:21.672Z,1.35
2017-12-13T02:28:50.780Z,1.37
2017-12-13T02:31:19.908Z,1.37
2017-12-13T02:33:48.247Z,1.35
2017-12-13T02:36:16.631Z,1.39
2017-12-13T02:38:44.947Z,1.46
2017-12-13T02:41:13.276Z,1.48
2017-12-13T02:43:41.678Z,1.53
2017-12-13T02:46:10.004Z,1.71
2017-12-13T02:48:38.341Z,1.86
2017-12-13T02:51:06.707Z,1.99
2017-12-13T02:53:35.059Z,2.09
2017-12-13T02:56:03.407Z,2.05
2017-12-13T02:58:32.541Z,1.97
2017-12-13T03:01:00.907Z,1.79
2017-12-13T03:03:29.239Z,1.68
2017-12-13T03:05:57.612Z,1.63
2017-12-13T03:08:25.983Z,1.53
2017-12-13T03:10:54.699Z,1.47
2017-12-13T03:13:23.838Z,1.37
2017-12-13T03:15:52.558Z,1.31
2017-12-13T03:18:20.919Z,1.29
2017-12-13T03:20:49.243Z,1.30
2017-12-13T03:23:17.611Z,1.28
2017-12-13T03:25:46.698Z,1.29
2017-12-13T03:28:15.823Z,1.32
2017-12-13T03:30:45.548Z,1.33
2017-12-13T03:33:13.863Z,1.30
2017-12-13T03:35:42.190Z,1.26
2017-12-13T03:38:10.574Z,1.26
2017-12-13T03:40:38.914Z,1.33
2017-12-13T03:43:08.025Z,1.36
2017-12-13T03:45:37.111Z,1.41
2017-12-13T03:48:06.831Z,1.48
2017-12-13T03:50:35.935Z,1.41
2017-12-13T03:53:05.054Z,1.38
2017-12-13T03:55:33.419Z,1.32
2017-12-13T03:58:01.764Z,1.31
2017-12-13T04:00:30.870Z,1.29
2017-12-13T04:02:59.950Z,1.30
2017-12-13T04:05:29.075Z,1.28
2017-12-13T04:07:57.438Z,1.37
2017-12-13T04:10:26.558Z,1.29
2017-12-13T04:12:54.898Z,1.24
2017-12-13T04:15:23.655Z,1.22
2017-12-13T04:17:52.375Z,1.21
2017-12-13T04:20:21.464Z,1.23
2017-12-13T04:22:50.583Z,1.19
2017-12-13T04:25:19.331Z,1.19
2017-12-13T04:27:47.686Z,1.07
2017-12-13T04:30:16.399Z,0.93
2017-12-13T04:32:46.270Z,0.87
2017-12-13T04:35:14.627Z,0.98
2017-12-13T04:37:42.954Z,1.05
2017-12-13T04:40:11.314Z,0.90
2017-12-13T04:42:39.634Z,0.82
2017-12-13T04:45:08.014Z,0.72
2017-12-13T04:47:37.106Z,0.66
2017-12-13T04:50:06.222Z,0.58
2017-12-13T04:52:34.950Z,0.53
2017-12-13T04:55:03.318Z,0.49
2017-12-13T04:57:32.020Z,0.54
2017-12-13T05:00:00.356Z,0.53
2017-12-13T05:02:28.718Z,0.55
2017-12-13T05:04:58.550Z,0.55
2017-12-13T05:07:26.891Z,0.51
2017-12-13T05:09:55.279Z,0.48
2017-12-13T05:12:23.998Z,0.60
2017-12-13T05:14:53.146Z,0.59
2017-12-13T05:17:21.470Z,0.63
2017-12-13T05:19:49.826Z,0.67
2017-12-13T05:22:18.178Z,0.67
2017-12-13T05:24:47.310Z,0.68
2017-12-13T05:27:15.671Z,0.67
2017-12-13T05:29:44.434Z,0.59
2017-12-13T05:32:13.530Z,0.59
2017-12-13T05:34:41.910Z,0.59
2017-12-13T05:37:10.254Z,0.50
2017-12-13T05:39:39.346Z,0.51
2017-12-13T05:42:07.714Z,0.57
2017-12-13T05:44:36.066Z,0.57
2017-12-13T05:47:04.822Z,0.58
2017-12-13T05:49:33.566Z,0.57
2017-12-13T05:52:01.926Z,0.62
2017-12-13T05:54:30.254Z,0.69
2017-12-13T05:56:58.648Z,0.66
2017-12-13T05:59:27.009Z,0.74
2017-12-13T06:01:56.481Z,0.73
2017-12-13T06:04:26.214Z,0.72
2017-12-13T06:06:55.331Z,0.69
2017-12-13T06:09:23.702Z,0.73
2017-12-13T06:11:52.495Z,0.82
2017-12-13T06:14:21.654Z,0.72
2017-12-13T06:16:51.581Z,0.72
2017-12-13T06:19:20.389Z,0.72
2017-12-13T06:21:48.765Z,0.75
2017-12-13T06:24:18.230Z,0.79
2017-12-13T06:26:46.573Z,0.80
2017-12-13T06:29:15.717Z,0.75
2017-12-13T06:31:44.038Z,0.65
2017-12-13T06:34:13.167Z,0.58
2017-12-13T06:36:41.933Z,0.58
2017-12-13T06:39:11.046Z,0.63
2017-12-13T06:41:40.942Z,0.64
2017-12-13T06:44:09.665Z,0.67
2017-12-13T06:46:38.397Z,0.63
2017-12-13T06:49:06.889Z,0.53
2017-12-13T06:51:35.485Z,0.56
2017-12-13T06:54:03.849Z,0.53
2017-12-13T06:56:32.977Z,0.53
2017-12-13T06:59:01.333Z,0.49
2017-12-13T07:01:30.461Z,0.49
2017-12-13T07:03:58.821Z,0.52
2017-12-13T07:06:27.553Z,0.52
2017-12-13T07:08:56.308Z,0.55
2017-12-13T07:11:25.073Z,0.50
2017-12-13T07:13:54.253Z,0.53
2017-12-13T07:16:23.779Z,0.55
2017-12-13T07:18:52.139Z,0.59
2017-12-13T07:21:21.246Z,0.54
2017-12-13T07:23:52.816Z,0.61
2017-12-13T07:26:21.729Z,0.60
2017-12-13T07:28:50.078Z,0.60
2017-12-13T07:31:19.634Z,0.58
2017-12-13T07:33:49.241Z,0.57
2017-12-13T07:36:19.361Z,0.60
2017-12-13T07:38:47.717Z,0.62
2017-12-13T07:41:16.048Z,0.62
2017-12-13T07:43:45.185Z,0.66
2017-12-13T07:46:13.913Z,0.66
2017-12-13T07:48:42.657Z,0.68
2017-12-13T07:51:12.440Z,0.81
2017-12-13T07:53:40.788Z,0.92
2017-12-13T07:56:09.160Z,0.97
2017-12-13T07:58:38.264Z,1.08
2017-12-13T08:01:06.637Z,1.12
2017-12-13T08:03:36.316Z,1.16
2017-12-13T08:06:05.524Z,1.27
2017-12-13T08:08:34.345Z,1.47
2017-12-13T08:11:03.349Z,1.53
2017-12-13T08:13:32.481Z,1.58
2017-12-13T08:16:00.908Z,1.61
2017-12-13T08:18:29.390Z,1.65
2017-12-13T08:20:57.721Z,1.71
2017-12-13T08:23:27.186Z,1.74
2017-12-13T08:25:56.728Z,1.77
2017-12-13T08:28:25.460Z,1.87
2017-12-13T08:30:55.216Z,1.90
2017-12-13T08:33:23.557Z,1.93
2017-12-13T08:35:52.700Z,1.98
2017-12-13T08:38:21.448Z,2.04
2017-12-13T08:40:50.556Z,2.04
2017-12-13T08:43:18.974Z,2.11
2017-12-13T08:45:47.449Z,2.20
2017-12-13T08:48:16.209Z,2.33
2017-12-13T08:50:44.533Z,2.41
2017-12-13T08:53:12.848Z,2.40
2017-12-13T08:55:41.984Z,2.48
2017-12-13T08:58:11.144Z,2.50
2017-12-13T09:00:39.476Z,2.50
2017-12-13T09:03:07.847Z,2.57
2017-12-13T09:05:36.628Z,2.65
2017-12-13T09:08:04.968Z,2.67
2017-12-13T09:10:33.356Z,2.71
2017-12-13T09:13:03.205Z,2.78
2017-12-13T09:15:31.949Z,2.84
2017-12-13T09:18:00.307Z,2.83
2017-12-13T09:20:29.401Z,2.88
2017-12-13T09:22:59.293Z,2.95
2017-12-13T09:25:27.632Z,2.98
2017-12-13T09:27:57.317Z,3.01
2017-12-13T09:30:25.680Z,3.11
2017-12-13T09:32:55.371Z,3.20
2017-12-13T09:35:23.782Z,3.20
2017-12-13T09:37:52.125Z,3.34
2017-12-13T09:40:20.876Z,3.44
2017-12-13T09:42:49.620Z,3.48
2017-12-13T09:45:17.956Z,3.48
2017-12-13T09:47:47.103Z,3.47
2017-12-13T09:50:15.420Z,3.53
2017-12-13T09:52:43.753Z,3.62
2017-12-13T09:55:12.501Z,3.68
2017-12-13T09:57:41.208Z,3.72
2017-12-13T10:00:10.748Z,3.78
2017-12-13T10:02:39.065Z,3.81
2017-12-13T10:05:07.419Z,3.89
2017-12-13T10:07:35.752Z,3.97
2017-12-13T10:10:04.073Z,4.05
2017-12-13T10:12:33.797Z,4.10
2017-12-13T10:15:03.498Z,4.18
2017-12-13T10:17:33.228Z,4.26
2017-12-13T10:20:02.700Z,4.33
2017-12-13T10:22:31.591Z,4.42
2017-12-13T10:24:59.952Z,4.45
2017-12-13T10:27:29.412Z,4.57
2017-12-13T10:29:57.764Z,4.64
2017-12-13T10:32:26.132Z,4.68
2017-12-13T10:34:54.472Z,4.64
2017-12-13T10:37:23.608Z,4.65
2017-12-13T10:39:51.948Z,4.67
2017-12-13T10:42:21.076Z,4.72
2017-12-13T10:44:49.402Z,4.78
2017-12-13T10:47:18.520Z,4.79
2017-12-13T10:49:47.631Z,4.86
2017-12-13T10:52:15.957Z,4.89
2017-12-13T10:54:45.096Z,4.99
2017-12-13T10:57:13.588Z,5.02
2017-12-13T10:59:41.908Z,5.02
2017-12-13T11:02:10.284Z,5.09
2017-12-13T11:04:38.755Z,5.29
2017-12-13T11:07:07.099Z,5.34
2017-12-13T11:09:35.497Z,5.40
2017-12-13T11:12:03.936Z,5.40
2017-12-13T11:14:33.073Z,5.40
2017-12-13T11:17:02.936Z,5.43
2017-12-13T11:19:31.676Z,5.47
2017-12-13T11:22:00.032Z,5.48
2017-12-13T11:24:28.400Z,5.56
2017-12-13T11:26:56.757Z,5.52
2017-12-13T11:29:25.856Z,5.64
2017-12-13T11:31:54.203Z,5.66
2017-12-13T11:34:22.524Z,5.67
2017-12-13T11:36:51.287Z,5.56
2017-12-13T11:39:19.660Z,5.48
2017-12-13T11:41:49.497Z,5.48
2017-12-13T11:44:18.272Z,5.44
2017-12-13T11:46:47.384Z,5.44
2017-12-13T11:49:16.864Z,5.34
2017-12-13T11:51:45.947Z,5.43
2017-12-13T11:54:17.037Z,5.49
2017-12-13T11:59:33.716Z,5.59
2017-12-13T12:02:07.275Z,5.61
2017-12-13T12:04:41.980Z,5.63
2017-12-13T12:07:17.530Z,5.60
2017-12-13T12:09:46.736Z,5.55
2017-12-13T12:14:49.924Z,5.28
2017-12-13T12:17:25.999Z,5.21
2017-12-13T12:20:00.179Z,5.19
2017-12-13T12:22:46.434Z,5.17
2017-12-13T12:25:16.039Z,5.04
2017-12-13T12:27:45.183Z,4.95
2017-12-13T12:30:15.196Z,4.94
2017-12-13T12:32:45.452Z,4.94
2017-12-13T12:35:15.071Z,4.91
2017-12-13T12:37:45.120Z,4.93
2017-12-13T12:40:14.906Z,4.90
2017-12-13T12:42:44.195Z,4.90
2017-12-13T12:45:14.063Z,4.82
2017-12-13T12:47:42.911Z,4.81
2017-12-13T12:50:12.587Z,4.86
2017-12-13T12:52:43.058Z,4.82
2017-12-13T12:55:13.402Z,4.84
2017-12-13T12:57:41.715Z,4.76
2017-12-13T13:00:11.014Z,4.73
2017-12-13T13:02:39.451Z,4.68
2017-12-13T13:05:08.171Z,4.63
2017-12-13T13:07:36.636Z,4.60
2017-12-13T13:10:07.678Z,4.61
2017-12-13T13:12:38.004Z,4.63
2017-12-13T13:15:07.518Z,4.58
2017-12-13T13:17:36.666Z,4.55
2017-12-13T13:20:06.562Z,4.58
2017-12-13T13:22:37.201Z,4.60
2017-12-13T13:25:07.280Z,4.56
2017-12-13T13:27:38.242Z,4.43
2017-12-13T13:30:07.383Z,4.54
2017-12-13T13:32:36.166Z,4.44
2017-12-13T13:35:04.566Z,4.39
2017-12-13T13:37:32.883Z,4.51
2017-12-13T13:40:02.011Z,4.56
2017-12-13T13:42:30.366Z,4.40
2017-12-13T13:44:59.836Z,4.36
2017-12-13T13:47:28.194Z,4.30
2017-12-13T13:49:57.320Z,4.43
2017-12-13T13:52:26.382Z,4.37
2017-12-13T13:54:56.149Z,4.29
2017-12-13T13:57:25.859Z,4.29
2017-12-13T13:59:54.230Z,4.23
2017-12-13T14:02:25.146Z,4.25
2017-12-13T14:04:54.330Z,4.13
2017-12-13T14:07:23.757Z,4.15
2017-12-13T14:09:52.510Z,4.12
2017-12-13T14:12:21.870Z,4.03
2017-12-13T14:14:50.226Z,4.03
2017-12-13T14:17:19.354Z,3.84
2017-12-13T14:19:47.693Z,3.81
2017-12-13T14:22:17.770Z,3.71
2017-12-13T14:24:46.878Z,3.71
2017-12-13T14:27:15.594Z,3.62
2017-12-13T14:29:43.994Z,3.52
2017-12-13T14:32:12.338Z,3.46
2017-12-13T14:34:40.751Z,3.44
2017-12-13T14:37:09.089Z,3.32
2017-12-13T14:39:38.548Z,3.40
2017-12-13T14:42:07.134Z,3.25
2017-12-13T14:44:35.598Z,3.33
2017-12-13T14:47:05.334Z,3.30
2017-12-13T14:49:34.569Z,3.28
2017-12-13T14:52:04.572Z,3.20
2017-12-13T14:54:34.410Z,3.04
2017-12-13T14:57:02.770Z,2.94
2017-12-13T14:59:31.112Z,2.93
2017-12-13T15:01:59.873Z,2.84
2017-12-13T15:04:28.198Z,2.98
2017-12-13T15:06:56.538Z,3.08
2017-12-13T15:09:24.921Z,3.18
2017-12-13T15:11:54.062Z,3.14
2017-12-13T15:14:24.064Z,3.02
2017-12-13T15:16:52.527Z,2.94
2017-12-13T15:19:22.034Z,2.97
2017-12-13T15:21:50.457Z,2.98
2017-12-13T15:24:18.983Z,3.07
2017-12-13T15:26:47.310Z,3.07
2017-12-13T15:29:15.665Z,3.13
2017-12-13T15:31:45.489Z,3.09
2017-12-13T15:34:13.913Z,3.15
2017-12-13T15:36:42.234Z,3.17
2017-12-13T15:39:11.389Z,3.15
2017-12-13T15:41:39.714Z,3.25
2017-12-13T15:44:08.183Z,3.23
2017-12-13T15:46:36.528Z,3.28
2017-12-13T15:49:04.910Z,3.18
2017-12-13T15:51:33.294Z,3.33
2017-12-13T15:54:03.365Z,3.35
2017-12-13T15:56:31.722Z,3.39
2017-12-13T15:59:01.420Z,3.43
2017-12-13T16:01:31.170Z,3.54
2017-12-13T16:03:59.487Z,3.51
2017-12-13T16:06:27.854Z,3.56
2017-12-13T16:08:57.564Z,3.53
2017-12-13T16:11:26.321Z,3.60
2017-12-13T16:13:54.689Z,3.57
2017-12-13T16:16:23.410Z,3.67
2017-12-13T16:18:51.761Z,3.65
2017-12-13T16:21:21.109Z,3.62
2017-12-13T16:23:49.537Z,3.60
2017-12-13T16:26:17.889Z,3.65
2017-12-13T16:28:46.633Z,3.71
2017-12-13T16:31:14.983Z,3.69
2017-12-13T16:33:44.145Z,3.69
2017-12-13T16:36:12.510Z,3.67
2017-12-13T16:38:42.001Z,3.64
2017-12-13T16:41:10.333Z,3.63
2017-12-13T16:43:40.061Z,3.59
2017-12-13T16:46:08.757Z,3.55
2017-12-13T16:48:38.339Z,3.61
2017-12-13T16:51:07.297Z,3.72
2017-12-13T16:53:36.389Z,3.58
2017-12-13T16:56:06.538Z,3.54
2017-12-13T16:58:35.634Z,3.52
2017-12-13T17:01:04.801Z,3.48
2017-12-13T17:03:33.750Z,3.58
2017-12-13T17:06:02.076Z,3.62
2017-12-13T17:08:31.954Z,3.60
2017-12-13T17:11:00.286Z,3.61
2017-12-13T17:13:29.417Z,3.56
2017-12-13T17:15:57.749Z,3.55
2017-12-13T17:18:26.901Z,3.62
2017-12-13T17:20:55.241Z,3.51
2017-12-13T17:23:24.024Z,3.45
2017-12-13T17:25:52.768Z,3.45
2017-12-13T17:28:21.110Z,3.54
2017-12-13T17:30:49.489Z,3.53
2017-12-13T17:33:17.833Z,3.57
2017-12-13T17:35:47.001Z,3.59
2017-12-13T17:38:15.417Z,3.65
2017-12-13T17:40:43.750Z,3.63
2017-12-13T17:43:12.517Z,3.66
2017-12-13T17:45:42.627Z,3.66
2017-12-13T17:48:12.096Z,3.73
2017-12-13T17:50:42.524Z,3.88
2017-12-13T17:53:12.452Z,4.00
2017-12-13T17:55:41.976Z,4.03
2017-12-13T17:58:11.016Z,3.99
2017-12-13T18:00:39.392Z,3.85
2017-12-13T18:03:08.156Z,3.91
2017-12-13T18:05:37.252Z,3.90
2017-12-13T18:08:05.971Z,3.77
2017-12-13T18:10:35.108Z,3.75
2017-12-13T18:13:03.900Z,3.72
2017-12-13T18:15:32.226Z,3.72
2017-12-13T18:18:01.395Z,3.76
2017-12-13T18:20:29.748Z,3.73
2017-12-13T18:22:58.137Z,3.71
2017-12-13T18:25:27.253Z,3.53
2017-12-13T18:27:55.944Z,3.56
2017-12-13T18:30:24.324Z,3.67
2017-12-13T18:32:52.648Z,3.70
2017-12-13T18:35:21.012Z,3.88
2017-12-13T18:37:50.883Z,4.09
2017-12-13T18:40:20.020Z,4.21
2017-12-13T18:42:49.891Z,4.35
2017-12-13T18:45:18.263Z,4.48
2017-12-13T18:47:47.873Z,4.61
2017-12-13T18:50:16.244Z,4.62
2017-12-13T18:52:44.739Z,4.67
2017-12-13T18:55:15.160Z,4.69
2017-12-13T18:57:44.054Z,4.69
2017-12-13T19:00:25.768Z,4.77
2017-12-13T19:02:54.132Z,4.77
2017-12-13T19:05:23.822Z,4.88
2017-12-13T19:07:54.891Z,4.91
2017-12-13T19:10:23.635Z,4.84
2017-12-13T19:12:53.576Z,4.89
2017-12-13T19:15:22.807Z,4.90
2017-12-13T19:17:51.607Z,4.98
2017-12-13T19:20:21.667Z,4.89
2017-12-13T19:22:50.573Z,4.99
2017-12-13T19:25:18.960Z,4.92
2017-12-13T19:27:48.981Z,4.96
2017-12-13T19:30:17.863Z,4.93
2017-12-13T19:32:46.377Z,4.92
2017-12-13T19:35:14.717Z,5.08
2017-12-13T19:37:44.155Z,5.08
2017-12-13T19:40:14.831Z,5.06
2017-12-13T19:42:43.943Z,5.17
2017-12-13T19:45:13.580Z,5.13
2017-12-13T19:47:43.919Z,5.26
2017-12-13T19:50:13.063Z,5.23
2017-12-13T19:52:41.423Z,5.25
2017-12-13T19:55:10.831Z,5.24
2017-12-13T19:57:40.855Z,5.20
2017-12-13T20:00:10.096Z,5.15
2017-12-13T20:02:39.888Z,5.22
2017-12-13T20:05:09.094Z,5.10
2017-12-13T20:07:37.522Z,5.03
2017-12-13T20:10:06.290Z,5.05
2017-12-13T20:12:36.126Z,5.02
2017-12-13T20:15:18.286Z,4.90
2017-12-13T20:17:47.860Z,4.91
2017-12-13T20:20:16.392Z,4.89
2017-12-13T20:22:45.221Z,5.05
2017-12-13T20:25:14.381Z,5.02
2017-12-13T20:27:44.386Z,4.99
2017-12-13T20:30:13.485Z,5.10
2017-12-13T20:32:43.154Z,5.10
2017-12-13T20:35:12.840Z,5.07
2017-12-13T20:37:41.889Z,5.25
2017-12-13T20:40:10.288Z,5.22
2017-12-13T20:42:39.299Z,5.13
2017-12-13T20:45:07.646Z,5.15
2017-12-13T20:47:37.701Z,4.98
2017-12-13T20:50:08.314Z,5.09
2017-12-13T20:52:36.867Z,5.04
2017-12-13T20:55:07.506Z,4.96
2017-12-13T20:57:37.377Z,4.96
2017-12-13T21:00:08.234Z,4.92
2017-12-13T21:02:38.110Z,4.81
2017-12-13T21:05:07.877Z,4.85
2017-12-13T21:07:38.342Z,4.63
2017-12-13T21:10:09.993Z,4.51
2017-12-13T21:12:38.773Z,4.46
2017-12-13T21:15:07.856Z,4.50
2017-12-13T21:17:37.429Z,4.51
2017-12-13T21:20:07.817Z,4.39
2017-12-13T21:22:40.326Z,4.17
2017-12-13T21:25:11.311Z,4.17
2017-12-13T21:27:40.805Z,4.17
2017-12-13T21:30:09.196Z,4.01
2017-12-13T21:32:38.096Z,4.03
2017-12-13T21:35:06.509Z,4.02
2017-12-13T21:37:34.913Z,3.87
2017-12-13T21:40:04.093Z,3.88
2017-12-13T21:42:33.339Z,3.86
2017-12-13T21:45:03.209Z,3.70
2017-12-13T21:47:33.657Z,3.64
2017-12-13T21:50:02.097Z,3.53
2017-12-13T21:52:31.317Z,3.63
2017-12-13T21:54:59.761Z,3.66
2017-12-13T21:57:29.050Z,3.59
2017-12-13T21:59:57.486Z,3.63
2017-12-13T22:02:27.118Z,3.67
2017-12-13T22:04:55.499Z,3.70
2017-12-13T22:07:26.114Z,3.84
2017-12-13T22:09:54.694Z,3.69
2017-12-13T22:12:23.107Z,3.75
2017-12-13T22:14:51.553Z,3.65
2017-12-13T22:17:19.957Z,3.74
2017-12-13T22:19:48.353Z,3.64
2017-12-13T22:22:18.217Z,3.58
2017-12-13T22:24:47.434Z,3.58
2017-12-13T22:27:16.299Z,3.58
2017-12-13T22:29:45.418Z,3.46
2017-12-13T22:32:15.790Z,3.33
2017-12-13T22:34:45.290Z,3.21
2017-12-13T22:37:14.145Z,3.07
2017-12-13T22:39:43.947Z,3.04
2017-12-13T22:42:13.425Z,3.14
2017-12-13T22:44:42.547Z,3.25
2017-12-13T22:47:10.934Z,3.31
2017-12-13T22:49:39.285Z,3.31
2017-12-13T22:52:08.010Z,3.29
2017-12-13T22:54:37.883Z,3.27
2017-12-13T22:57:06.981Z,3.31
2017-12-13T22:59:36.102Z,3.07
2017-12-13T23:02:05.777Z,2.97
2017-12-13T23:04:35.514Z,2.88
2017-12-13T23:07:04.235Z,3.03
2017-12-13T23:09:32.587Z,3.22
2017-12-13T23:12:01.711Z,3.37
2017-12-13T23:14:30.053Z,3.49
2017-12-13T23:16:59.274Z,3.54
2017-12-13T23:19:28.041Z,3.60
2017-12-13T23:21:56.366Z,3.60
2017-12-13T23:24:24.749Z,3.58
2017-12-13T23:26:53.973Z,3.61
2017-12-13T23:29:22.736Z,3.56
2017-12-13T23:31:52.584Z,3.49
2017-12-13T23:34:20.927Z,3.21
2017-12-13T23:36:50.061Z,3.00
2017-12-13T23:39:18.425Z,2.91
2017-12-13T23:41:47.667Z,3.00
2017-12-13T23:44:15.984Z,2.80
2017-12-13T23:46:45.137Z,2.86
2017-12-13T23:49:13.484Z,2.82
2017-12-13T23:51:42.241Z,3.03
2017-12-13T23:54:10.605Z,3.08
2017-12-13T23:56:38.942Z,3.11
2017-12-13T23:59:08.034Z,3.11
